Terminal Aerodrome Forecast
Issued by NWS Cleveland, OH

Home | Current Version | Previous Version | Graphics & Text | Print | Product List | Glossary On
Versions: 1 2 3 4 5 6 7 8 9 10 11 12 13 14 15 16 17 18 19 20 21 22 23 24 25
809
FTUS41 KCLE 191140
TAFERI
TAF
KERI 191140Z 1912/2012 23007KT 6SM BR OVC007
     FM191500 26007KT P6SM OVC010
     FM192100 21005KT P6SM BKN100 OVC250
     FM200000 14007KT P6SM OVC100=

USA.gov is the U.S. government's official web portal to all federal, state and local government web resources and services.